Time;durP1;ratioP1;P1;durP2;ratioP2;P2;SDS_P1;SDS_P2;PMS_P1;PMS_P2;Temp;Humidity;BMP_temperature;BMP_pressure;BME280_temperature;BME280_humidity;BME280_pressure;Samples;Min_cycle;Max_cycle;Signal;HPM_P1;HPM_P2
2020/12/29 00:00:53;;;;;;;5.15;2.05;;;3.20;99.90;;;;;;4992857;28;20038;-57
2020/12/29 00:03:20;;;;;;;3.53;1.65;;;3.20;99.90;;;;;;4993002;28;20081;-58
2020/12/29 00:05:47;;;;;;;4.25;1.92;;;3.30;99.90;;;;;;4993055;28;20029;-58
2020/12/29 00:08:14;;;;;;;8.07;1.80;;;3.30;99.90;;;;;;4992909;28;20034;-57
2020/12/29 00:10:41;;;;;;;3.13;1.60;;;3.30;99.90;;;;;;4992750;28;20023;-59
2020/12/29 00:13:08;;;;;;;4.93;1.45;;;3.30;99.90;;;;;;4992908;28;20050;-59
2020/12/29 00:15:38;;;;;;;3.95;1.75;;;3.30;99.90;;;;;;4991575;28;20022;-58
2020/12/29 00:18:04;;;;;;;3.55;1.63;;;3.20;99.90;;;;;;4992489;28;20046;-58
2020/12/29 00:20:30;;;;;;;4.13;1.75;;;3.10;99.90;;;;;;4992759;28;20030;-59
2020/12/29 00:22:56;;;;;;;9.43;4.15;;;3.10;99.90;;;;;;4992625;28;20041;-58
2020/12/29 00:25:22;;;;;;;4.75;2.25;;;3.10;99.90;;;;;;4992562;28;20034;-58
2020/12/29 00:27:48;;;;;;;5.38;1.70;;;3.00;99.90;;;;;;4992613;28;20052;-57
2020/12/29 00:30:14;;;;;;;3.67;2.00;;;3.00;99.90;;;;;;4992486;28;20065;-58
2020/12/29 00:32:40;;;;;;;4.47;2.03;;;3.00;99.90;;;;;;4992903;28;20034;-58
2020/12/29 00:35:06;;;;;;;4.82;2.03;;;3.00;99.90;;;;;;4991461;28;20035;-58
2020/12/29 00:37:32;;;;;;;5.57;2.25;;;3.00;99.90;;;;;;4991528;28;20117;-56
2020/12/29 00:39:58;;;;;;;4.80;2.72;;;2.90;99.90;;;;;;4992712;28;20114;-58
2020/12/29 00:42:24;;;;;;;4.38;2.60;;;2.90;99.90;;;;;;4992388;28;20030;-59
2020/12/29 00:44:50;;;;;;;4.30;2.55;;;2.90;99.90;;;;;;4992562;28;20108;-58
2020/12/29 00:47:18;;;;;;;4.35;2.33;;;2.90;99.90;;;;;;4992324;28;20050;-59
2020/12/29 00:49:44;;;;;;;6.82;2.83;;;2.80;99.90;;;;;;4992551;28;20085;-58
2020/12/29 00:52:10;;;;;;;5.68;2.42;;;2.80;99.90;;;;;;4992258;28;20035;-59
2020/12/29 00:54:36;;;;;;;3.88;2.30;;;2.80;99.90;;;;;;4992740;28;20030;-58
2020/12/29 00:57:02;;;;;;;5.03;2.55;;;2.80;99.90;;;;;;4992271;28;20038;-58
2020/12/29 00:59:28;;;;;;;4.25;2.17;;;2.80;99.90;;;;;;4992450;28;20046;-58
2020/12/29 01:01:59;;;;;;;5.90;1.98;;;2.80;99.90;;;;;;4992320;28;20101;-58
2020/12/29 01:04:26;;;;;;;4.13;2.05;;;2.80;99.90;;;;;;4992174;28;20033;-58
2020/12/29 01:06:52;;;;;;;5.65;1.70;;;2.90;99.90;;;;;;4994677;28;20096;-58
2020/12/29 01:09:19;;;;;;;4.07;2.00;;;2.80;99.90;;;;;;4995880;28;20034;-57
2020/12/29 01:11:45;;;;;;;3.90;2.20;;;2.90;99.90;;;;;;4994736;28;20030;-58
2020/12/29 01:14:11;;;;;;;3.78;2.17;;;3.00;99.90;;;;;;4995845;28;20085;-57
2020/12/29 01:16:37;;;;;;;3.65;1.80;;;3.00;99.90;;;;;;4995548;28;20073;-56
2020/12/29 01:19:04;;;;;;;3.85;2.13;;;3.00;99.90;;;;;;4995849;28;20026;-58
2020/12/29 01:21:29;;;;;;;6.20;2.00;;;3.10;99.90;;;;;;4995578;28;20041;-57
2020/12/29 01:23:55;;;;;;;2.67;1.60;;;3.20;99.90;;;;;;4995745;28;20030;-57
2020/12/29 01:26:23;;;;;;;6.78;1.85;;;3.30;99.90;;;;;;4995516;28;20156;-58
2020/12/29 01:28:50;;;;;;;5.43;1.60;;;3.30;99.90;;;;;;4995567;28;20040;-58
2020/12/29 01:31:30;;;;;;;3.08;1.55;;;3.30;99.90;;;;;;4995718;28;20062;-59
2020/12/29 01:33:58;;;;;;;3.87;1.80;;;3.40;99.90;;;;;;4994685;28;20035;-58
2020/12/29 01:36:25;;;;;;;4.20;2.08;;;3.40;99.90;;;;;;4995320;28;20294;-58
2020/12/29 01:38:52;;;;;;;3.80;1.85;;;3.40;99.90;;;;;;4995662;28;20034;-58
2020/12/29 01:41:19;;;;;;;3.10;1.83;;;3.50;99.90;;;;;;4994209;28;20030;-58
2020/12/29 01:43:45;;;;;;;3.05;1.88;;;3.50;99.90;;;;;;4994362;28;20121;-58
2020/12/29 01:46:11;;;;;;;3.83;1.90;;;3.60;99.90;;;;;;4995571;28;20058;-58
2020/12/29 01:48:37;;;;;;;4.43;1.73;;;3.70;99.90;;;;;;4995044;28;20177;-58
2020/12/29 01:51:04;;;;;;;3.20;1.77;;;3.70;99.90;;;;;;4995468;28;20105;-58
2020/12/29 01:53:30;;;;;;;5.30;1.70;;;3.70;99.90;;;;;;4995301;28;20022;-59
2020/12/29 01:55:56;;;;;;;4.90;1.60;;;3.80;99.90;;;;;;4995311;28;20387;-56
2020/12/29 01:58:22;;;;;;;4.20;1.60;;;3.80;99.90;;;;;;4995114;28;20045;-57
2020/12/29 02:00:49;;;;;;;2.22;1.42;;;3.80;99.90;;;;;;4993775;28;20066;-56
2020/12/29 02:03:16;;;;;;;3.75;1.60;;;3.90;99.90;;;;;;4994868;28;20038;-59
2020/12/29 02:05:47;;;;;;;3.67;1.40;;;3.90;99.90;;;;;;4995154;28;20061;-59
2020/12/29 02:08:14;;;;;;;3.05;1.70;;;3.90;99.90;;;;;;4995177;28;20037;-59
2020/12/29 02:10:43;;;;;;;3.15;1.35;;;3.90;99.90;;;;;;4993963;28;20126;-58
2020/12/29 02:13:09;;;;;;;5.20;1.42;;;3.80;99.90;;;;;;4994833;28;20093;-56
2020/12/29 02:15:35;;;;;;;2.92;1.33;;;3.90;99.90;;;;;;4994653;28;20038;-58
2020/12/29 02:18:01;;;;;;;2.25;1.60;;;3.90;99.90;;;;;;4994265;28;20089;-56
2020/12/29 02:20:27;;;;;;;3.03;1.33;;;3.90;99.90;;;;;;4994782;28;20038;-56
2020/12/29 02:22:53;;;;;;;3.05;1.63;;;3.90;99.90;;;;;;4994929;28;20030;-58
2020/12/29 02:25:18;;;;;;;3.00;1.60;;;3.90;99.90;;;;;;4994456;28;20439;-58
2020/12/29 02:27:49;;;;;;;4.10;1.33;;;4.00;99.90;;;;;;4994533;28;20511;-56
2020/12/29 02:30:17;;;;;;;3.22;1.40;;;4.00;99.90;;;;;;4993388;28;20088;-57
2020/12/29 02:32:43;;;;;;;1.73;1.10;;;4.00;99.90;;;;;;4994730;28;20041;-58
2020/12/29 02:35:11;;;;;;;2.83;1.58;;;4.00;99.90;;;;;;4994672;28;20034;-59
2020/12/29 02:37:37;;;;;;;3.40;1.27;;;3.90;99.90;;;;;;4994406;28;20045;-59
2020/12/29 02:40:05;;;;;;;5.18;1.38;;;3.90;99.90;;;;;;4994312;28;20034;-58
2020/12/29 02:42:31;;;;;;;5.07;1.50;;;3.90;99.90;;;;;;4994197;28;20050;-58
2020/12/29 02:44:57;;;;;;;2.92;1.30;;;3.90;99.90;;;;;;4994486;28;20027;-60
2020/12/29 02:47:23;;;;;;;2.72;1.42;;;3.90;99.90;;;;;;4994046;28;20046;-56
2020/12/29 02:49:49;;;;;;;2.42;1.10;;;3.80;99.90;;;;;;4994287;28;20034;-57
2020/12/29 02:52:15;;;;;;;1.83;1.10;;;3.90;99.90;;;;;;4994072;28;20038;-58
2020/12/29 02:54:40;;;;;;;2.30;1.13;;;3.90;99.90;;;;;;4994172;28;20187;-58
2020/12/29 02:57:06;;;;;;;4.32;1.05;;;4.00;99.90;;;;;;4993922;28;20057;-58
2020/12/29 02:59:32;;;;;;;1.60;1.10;;;4.00;99.90;;;;;;4993814;28;20061;-57
2020/12/29 03:01:58;;;;;;;2.92;1.27;;;4.00;99.90;;;;;;4994176;28;20117;-58
2020/12/29 03:04:24;;;;;;;2.22;1.00;;;4.10;99.90;;;;;;4993928;28;20089;-59
2020/12/29 03:06:50;;;;;;;3.03;1.10;;;4.00;99.90;;;;;;4993842;28;20030;-60
2020/12/29 03:09:17;;;;;;;1.65;0.80;;;4.10;99.90;;;;;;4994054;28;20038;-60
2020/12/29 03:11:45;;;;;;;2.40;1.17;;;4.10;99.90;;;;;;4993923;28;20089;-59
2020/12/29 03:14:11;;;;;;;2.58;1.00;;;4.20;99.90;;;;;;4992745;28;20105;-58
2020/12/29 03:16:37;;;;;;;3.13;1.20;;;4.10;99.90;;;;;;4993430;28;20034;-59
2020/12/29 03:19:04;;;;;;;1.23;0.95;;;4.10;99.90;;;;;;4993932;28;20031;-58
2020/12/29 03:21:30;;;;;;;3.45;1.00;;;4.20;99.90;;;;;;4993401;28;20058;-58
2020/12/29 03:23:57;;;;;;;1.85;1.00;;;4.10;99.90;;;;;;4993797;28;20035;-60
2020/12/29 03:26:25;;;;;;;2.53;0.70;;;4.10;99.90;;;;;;4993262;28;20084;-59
2020/12/29 03:28:53;;;;;;;1.20;0.70;;;4.10;99.90;;;;;;4992947;28;20031;-59
2020/12/29 03:31:19;;;;;;;1.23;0.70;;;4.10;99.90;;;;;;4992375;28;20030;-60
2020/12/29 03:33:45;;;;;;;1.60;0.90;;;4.10;99.90;;;;;;4993249;28;20113;-56
2020/12/29 03:36:11;;;;;;;2.72;1.02;;;4.00;99.90;;;;;;4993317;28;20138;-59
2020/12/29 03:38:37;;;;;;;1.73;0.93;;;4.00;99.90;;;;;;4993300;28;20472;-59
2020/12/29 03:41:03;;;;;;;2.00;0.80;;;4.00;99.90;;;;;;4993218;28;20039;-59
2020/12/29 03:43:29;;;;;;;1.85;0.70;;;4.00;99.90;;;;;;4993294;28;20031;-59
2020/12/29 03:45:55;;;;;;;1.27;0.70;;;4.10;99.90;;;;;;4993162;28;20046;-58
2020/12/29 03:48:25;;;;;;;2.53;0.77;;;4.10;99.90;;;;;;4992944;28;20153;-58
2020/12/29 03:50:52;;;;;;;1.92;0.75;;;4.10;99.90;;;;;;4992136;28;20038;-58
2020/12/29 03:53:19;;;;;;;1.65;0.65;;;4.20;99.90;;;;;;4993029;28;20045;-59
2020/12/29 03:55:45;;;;;;;1.92;0.93;;;4.10;99.90;;;;;;4993073;28;20027;-58
2020/12/29 03:58:11;;;;;;;1.27;0.50;;;4.20;99.90;;;;;;4992027;28;20034;-58
2020/12/29 04:00:37;;;;;;;1.30;0.70;;;4.30;99.90;;;;;;4993102;28;20022;-58
2020/12/29 04:03:04;;;;;;;0.68;0.47;;;4.30;99.90;;;;;;4992939;28;20030;-58
2020/12/29 04:05:31;;;;;;;0.60;0.40;;;4.40;99.90;;;;;;4992944;28;20037;-58
2020/12/29 04:07:57;;;;;;;1.92;0.50;;;4.40;99.90;;;;;;4993060;28;20034;-58
2020/12/29 04:10:23;;;;;;;0.82;0.50;;;4.40;99.90;;;;;;4991677;28;20053;-58
2020/12/29 04:12:49;;;;;;;1.00;0.52;;;4.40;99.90;;;;;;4992877;28;20061;-57
2020/12/29 04:15:15;;;;;;;2.10;0.70;;;4.40;99.90;;;;;;4992959;28;20022;-58
2020/12/29 04:17:42;;;;;;;1.27;0.60;;;4.40;99.90;;;;;;4991057;28;20069;-58
2020/12/29 04:20:12;;;;;;;1.33;0.63;;;4.40;99.90;;;;;;4992707;28;20085;-59
2020/12/29 04:22:41;;;;;;;2.00;0.75;;;4.40;99.90;;;;;;4992812;28;20046;-57
2020/12/29 04:25:10;;;;;;;0.57;0.40;;;4.40;99.90;;;;;;4992913;28;20081;-57
2020/12/29 04:27:39;;;;;;;1.30;0.47;;;4.30;99.90;;;;;;4992515;28;20085;-58
2020/12/29 04:30:06;;;;;;;0.10;0.10;;;4.40;99.90;;;;;;4992887;28;20084;-58
2020/12/29 04:32:32;;;;;;;0.15;0.10;;;4.40;99.90;;;;;;4992747;28;20113;-57
2020/12/29 04:34:59;;;;;;;0.20;0.20;;;4.40;99.90;;;;;;4992842;28;20114;-58
2020/12/29 04:37:24;;;;;;;1.90;0.28;;;4.40;99.90;;;;;;4992414;28;20042;-56
2020/12/29 04:39:50;;;;;;;0.20;0.20;;;4.40;99.90;;;;;;4993371;28;20105;-56
2020/12/29 04:42:17;;;;;;;0.28;0.20;;;4.30;99.90;;;;;;4995357;28;20034;-58
2020/12/29 04:44:43;;;;;;;1.27;0.40;;;4.30;99.90;;;;;;4995399;28;20031;-59
2020/12/29 04:47:11;;;;;;;0.75;0.30;;;4.20;99.90;;;;;;4996634;28;20073;-58
2020/12/29 04:49:38;;;;;;;0.73;0.20;;;4.10;99.90;;;;;;4996403;28;20030;-59
2020/12/29 04:52:06;;;;;;;0.10;0.10;;;4.00;99.90;;;;;;4996583;28;20030;-58
2020/12/29 04:54:41;;;;;;;0.13;0.13;;;4.00;99.90;;;;;;4996447;28;20080;-58
2020/12/29 04:57:09;;;;;;;0.10;0.10;;;3.90;99.90;;;;;;4996401;28;20100;-59
2020/12/29 04:59:36;;;;;;;0.10;0.10;;;3.90;99.90;;;;;;4996367;28;20018;-59
2020/12/29 05:02:04;;;;;;;0.70;0.17;;;3.80;99.90;;;;;;4996191;28;20034;-57
2020/12/29 05:04:29;;;;;;;0.32;0.17;;;3.80;99.90;;;;;;4995916;28;20030;-59
2020/12/29 05:06:56;;;;;;;0.30;0.25;;;3.80;99.90;;;;;;4995976;28;20080;-58
2020/12/29 05:09:25;;;;;;;3.72;0.30;;;3.70;99.90;;;;;;4996300;28;20030;-58
2020/12/29 05:11:51;;;;;;;0.10;0.10;;;3.70;99.90;;;;;;4995716;28;20038;-58
2020/12/29 05:14:18;;;;;;;0.10;0.10;;;3.70;99.90;;;;;;4995914;28;20040;-58
2020/12/29 05:16:44;;;;;;;0.10;0.10;;;3.70;99.90;;;;;;4995547;28;20038;-58
2020/12/29 05:19:14;;;;;;;0.15;0.15;;;3.70;99.90;;;;;;4996107;28;20034;-57
2020/12/29 05:21:41;;;;;;;0.10;0.10;;;3.70;99.90;;;;;;4995951;28;20036;-58
2020/12/29 05:24:22;;;;;;;0.25;0.15;;;3.60;99.90;;;;;;4995741;28;20047;-57
2020/12/29 05:26:52;;;;;;;0.13;0.13;;;3.60;99.90;;;;;;4995866;28;20034;-58
2020/12/29 05:29:22;;;;;;;0.20;0.10;;;3.50;99.90;;;;;;4995852;28;20289;-58
2020/12/29 05:31:48;;;;;;;0.47;0.17;;;3.50;99.90;;;;;;4995747;28;20026;-57
2020/12/29 05:34:25;;;;;;;0.22;0.20;;;3.40;99.90;;;;;;4995890;28;20049;-57
2020/12/29 05:36:53;;;;;;;0.40;0.20;;;3.40;99.90;;;;;;4994386;28;20035;-59
2020/12/29 05:39:21;;;;;;;0.20;0.20;;;3.40;99.90;;;;;;4995530;28;20058;-59
2020/12/29 05:41:50;;;;;;;0.45;0.20;;;3.40;99.90;;;;;;4994047;28;20041;-58
2020/12/29 05:44:32;;;;;;;0.10;0.10;;;3.40;99.90;;;;;;4994194;28;20038;-58
2020/12/29 05:47:01;;;;;;;0.20;0.20;;;3.40;99.90;;;;;;4995376;28;20031;-59
2020/12/29 05:49:30;;;;;;;0.57;0.20;;;3.40;99.90;;;;;;4994315;28;20093;-59
2020/12/29 05:51:57;;;;;;;0.13;0.13;;;3.40;99.90;;;;;;4993407;28;20089;-59
2020/12/29 05:54:26;;;;;;;0.10;0.10;;;3.40;99.90;;;;;;4995006;28;20030;-57
2020/12/29 05:56:53;;;;;;;0.10;0.10;;;3.50;99.90;;;;;;4994964;28;20057;-58
2020/12/29 05:59:20;;;;;;;0.10;0.10;;;3.40;99.90;;;;;;4995160;28;20077;-60
2020/12/29 06:01:50;;;;;;;0.13;0.10;;;3.50;99.90;;;;;;4994208;28;20054;-56
2020/12/29 06:04:17;;;;;;;2.00;0.22;;;3.50;99.90;;;;;;4983939;28;20030;-55
2020/12/29 06:06:45;;;;;;;0.20;0.20;;;3.50;99.90;;;;;;4994783;28;20042;-57
2020/12/29 06:09:17;;;;;;;0.10;0.10;;;3.50;99.90;;;;;;4994550;28;20037;-58
2020/12/29 06:11:51;;;;;;;0.30;0.30;;;3.50;99.90;;;;;;4994979;28;20125;-57
2020/12/29 06:14:26;;;;;;;0.50;0.30;;;3.50;99.90;;;;;;4994822;28;20084;-58
2020/12/29 06:16:54;;;;;;;0.10;0.10;;;3.60;99.90;;;;;;4977112;28;20051;-58
2020/12/29 06:19:31;;;;;;;0.98;0.25;;;3.50;99.90;;;;;;4994550;28;20072;-59
2020/12/29 06:22:13;;;;;;;3.67;0.30;;;3.50;99.90;;;;;;4994764;28;20034;-58
2020/12/29 06:24:43;;;;;;;0.32;0.25;;;3.50;99.90;;;;;;4994737;28;20089;-54
2020/12/29 06:27:11;;;;;;;0.10;0.10;;;3.50;99.90;;;;;;4993604;28;20125;-57
2020/12/29 06:29:44;;;;;;;0.63;0.20;;;3.60;99.90;;;;;;4994571;28;20026;-56
2020/12/29 06:32:22;;;;;;;1.33;0.30;;;3.70;99.90;;;;;;4992469;28;20085;-54
2020/12/29 06:34:49;;;;;;;0.55;0.30;;;3.70;99.90;;;;;;4992075;28;20170;-56
2020/12/29 06:37:39;;;;;;;0.20;0.20;;;3.70;99.90;;;;;;4994284;28;20045;-56
2020/12/29 06:40:07;;;;;;;0.35;0.30;;;3.70;99.90;;;;;;4994136;28;20039;-55
2020/12/29 06:42:39;;;;;;;0.47;0.20;;;3.70;99.90;;;;;;4994457;28;20041;-57
2020/12/29 06:45:10;;;;;;;0.45;0.35;;;3.70;99.90;;;;;;4992991;28;20113;-56
2020/12/29 06:47:39;;;;;;;0.32;0.30;;;3.70;99.90;;;;;;4994299;28;20033;-52
2020/12/29 06:50:23;;;;;;;0.30;0.30;;;3.70;99.90;;;;;;4994303;28;20041;-54
2020/12/29 06:53:03;;;;;;;0.65;0.38;;;3.60;99.90;;;;;;4992692;28;20042;-54
2020/12/29 06:55:43;;;;;;;0.13;0.13;;;3.60;99.90;;;;;;4993009;28;20031;-53
2020/12/29 06:58:12;;;;;;;0.30;0.30;;;3.60;99.90;;;;;;4994144;28;20038;-53
2020/12/29 07:00:38;;;;;;;0.75;0.40;;;3.50;99.90;;;;;;4992886;28;20026;-56
2020/12/29 07:03:04;;;;;;;0.20;0.20;;;3.60;99.90;;;;;;4992930;28;20041;-56
2020/12/29 07:05:36;;;;;;;1.08;0.40;;;3.60;99.90;;;;;;4993479;28;20052;-54
2020/12/29 07:08:08;;;;;;;1.52;0.85;;;3.60;99.90;;;;;;4994041;28;20049;-56
2020/12/29 07:10:44;;;;;;;0.63;0.50;;;3.70;99.90;;;;;;4994001;28;20030;-54
2020/12/29 07:13:16;;;;;;;0.75;0.52;;;3.70;99.90;;;;;;4993960;28;20034;-54
2020/12/29 07:15:51;;;;;;;1.10;0.70;;;3.70;99.90;;;;;;4993505;28;20038;-55
2020/12/29 07:18:28;;;;;;;1.63;0.80;;;3.70;99.90;;;;;;4992963;28;20141;-53
2020/12/29 07:20:57;;;;;;;0.90;0.60;;;3.70;99.90;;;;;;4993385;28;20046;-56
2020/12/29 07:23:27;;;;;;;0.70;0.50;;;3.70;99.90;;;;;;4993667;28;20165;-53
2020/12/29 07:25:58;;;;;;;2.87;0.60;;;3.80;99.90;;;;;;4993540;28;20118;-54
2020/12/29 07:28:27;;;;;;;0.47;0.40;;;3.80;99.90;;;;;;4992427;28;20030;-53
2020/12/29 07:30:53;;;;;;;0.50;0.40;;;3.70;99.90;;;;;;4993438;28;20030;-52
2020/12/29 07:33:24;;;;;;;0.85;0.50;;;3.70;99.90;;;;;;4993462;28;20030;-54
2020/12/29 07:35:51;;;;;;;0.30;0.30;;;3.80;99.90;;;;;;4992155;28;20113;-56
2020/12/29 07:38:23;;;;;;;0.70;0.60;;;3.80;99.90;;;;;;4993240;28;20038;-53
2020/12/29 07:40:49;;;;;;;0.60;0.40;;;3.80;99.90;;;;;;4993232;28;20044;-53
2020/12/29 07:43:15;;;;;;;0.60;0.57;;;3.80;99.90;;;;;;4991927;28;20030;-53
2020/12/29 07:45:41;;;;;;;1.42;0.70;;;3.80;99.90;;;;;;4992851;28;20034;-52
2020/12/29 07:48:08;;;;;;;1.52;0.90;;;3.80;99.90;;;;;;4993172;28;20121;-56
2020/12/29 07:50:37;;;;;;;0.93;0.70;;;3.80;99.90;;;;;;4992887;28;20027;-56
2020/12/29 07:53:13;;;;;;;1.83;1.05;;;3.80;99.90;;;;;;4993193;28;20026;-57
2020/12/29 07:55:46;;;;;;;1.20;0.70;;;3.80;99.90;;;;;;4993028;28;20037;-56
2020/12/29 07:58:12;;;;;;;2.65;1.38;;;3.90;99.90;;;;;;4992988;28;20080;-52
2020/12/29 08:00:40;;;;;;;1.65;0.90;;;4.00;99.90;;;;;;4992696;28;20027;-54
2020/12/29 08:03:06;;;;;;;2.30;0.90;;;3.90;99.90;;;;;;4993041;28;20033;-55
2020/12/29 08:05:34;;;;;;;2.85;1.20;;;3.90;99.90;;;;;;4992862;28;20037;-48
2020/12/29 08:08:06;;;;;;;2.80;1.23;;;3.90;99.90;;;;;;4992851;28;20042;-51
2020/12/29 08:10:40;;;;;;;2.20;1.30;;;4.00;99.90;;;;;;4992924;28;20026;-52
2020/12/29 08:13:12;;;;;;;2.95;1.25;;;4.00;99.90;;;;;;4992942;28;20023;-56
2020/12/29 08:15:41;;;;;;;1.10;0.90;;;4.10;99.90;;;;;;4992551;28;20031;-55
2020/12/29 08:18:15;;;;;;;1.73;1.08;;;4.10;99.90;;;;;;5003371;28;20132;-55
2020/12/29 08:20:45;;;;;;;2.10;1.27;;;4.20;99.90;;;;;;4983480;28;20585;-58
2020/12/29 08:23:19;;;;;;;3.10;1.40;;;4.00;99.90;;;;;;4990398;28;20049;-60
2020/12/29 08:25:54;;;;;;;1.25;0.80;;;4.10;99.90;;;;;;4989928;28;20137;-49
2020/12/29 08:28:23;;;;;;;1.52;0.80;;;4.20;99.90;;;;;;4992770;28;20038;-46
2020/12/29 08:30:49;;;;;;;1.25;0.80;;;4.10;99.90;;;;;;4991453;28;20033;-48
2020/12/29 08:33:21;;;;;;;1.70;1.00;;;4.10;99.90;;;;;;4988969;28;20041;-46
2020/12/29 08:35:53;;;;;;;2.42;1.05;;;4.20;99.90;;;;;;4992250;28;20033;-54
2020/12/29 08:38:31;;;;;;;1.70;1.02;;;4.30;99.90;;;;;;4991330;28;20121;-53
2020/12/29 08:41:08;;;;;;;1.75;1.08;;;4.30;99.90;;;;;;4992164;28;20157;-49
2020/12/29 08:43:48;;;;;;;3.05;1.38;;;4.30;99.90;;;;;;4992452;28;20036;-48
2020/12/29 08:46:23;;;;;;;1.20;0.73;;;4.30;99.90;;;;;;4992747;28;20026;-48
2020/12/29 08:48:57;;;;;;;1.88;1.13;;;4.10;99.90;;;;;;4992029;28;20300;-52
2020/12/29 08:51:26;;;;;;;1.92;1.10;;;4.20;99.90;;;;;;4992642;28;20027;-54
2020/12/29 08:53:53;;;;;;;1.35;0.88;;;4.10;99.90;;;;;;4992373;28;20030;-53
2020/12/29 08:56:26;;;;;;;3.47;1.30;;;4.00;99.90;;;;;;4992349;28;20065;-53
2020/12/29 08:58:53;;;;;;;2.08;1.20;;;4.00;99.90;;;;;;4992100;28;20073;-50
2020/12/29 09:01:33;;;;;;;2.95;0.90;;;4.10;99.90;;;;;;4992417;28;20038;-66
2020/12/29 09:04:38;;;;;;;1.77;1.08;;;4.10;99.90;;;;;;4981076;28;20039;-53
2020/12/29 09:07:09;;;;;;;1.33;0.90;;;4.20;99.90;;;;;;4972775;28;20019;-53
2020/12/29 09:09:38;;;;;;;1.08;0.70;;;4.10;99.90;;;;;;4987733;28;20027;-56
2020/12/29 09:12:15;;;;;;;1.80;0.90;;;4.10;99.90;;;;;;4987414;28;20042;-60
2020/12/29 09:15:09;;;;;;;1.50;0.80;;;4.20;99.90;;;;;;4972591;28;20131;-52
2020/12/29 09:17:40;;;;;;;0.70;0.60;;;4.20;99.90;;;;;;4971644;28;20055;-52
2020/12/29 09:20:23;;;;;;;1.60;0.77;;;4.30;99.90;;;;;;4972703;28;20110;-60
2020/12/29 09:23:00;;;;;;;1.60;0.95;;;4.30;99.90;;;;;;4972399;28;20035;-54
2020/12/29 09:25:29;;;;;;;2.08;0.95;;;4.30;99.90;;;;;;4972510;28;20038;-57
2020/12/29 09:28:30;;;;;;;1.05;0.70;;;4.40;99.90;;;;;;4974834;28;20038;-51
2020/12/29 09:31:00;;;;;;;1.13;0.60;;;4.40;99.90;;;;;;4992947;28;20037;-51
2020/12/29 09:33:29;;;;;;;1.42;0.82;;;4.30;99.90;;;;;;4991672;28;20081;-48
2020/12/29 09:36:02;;;;;;;1.00;0.70;;;4.40;99.90;;;;;;4995073;28;20031;-53
2020/12/29 09:38:29;;;;;;;1.98;1.17;;;4.40;99.90;;;;;;4995474;28;20037;-52
2020/12/29 09:40:55;;;;;;;1.48;0.90;;;4.40;99.90;;;;;;4995281;28;20031;-52
2020/12/29 09:43:24;;;;;;;2.05;1.05;;;4.30;99.90;;;;;;4995455;28;20034;-51
2020/12/29 09:45:50;;;;;;;3.78;0.95;;;4.20;99.90;;;;;;4995134;28;20030;-50
2020/12/29 09:48:17;;;;;;;1.70;0.95;;;4.20;99.90;;;;;;4994737;28;20057;-55
2020/12/29 09:50:44;;;;;;;1.60;1.00;;;4.10;99.90;;;;;;4994580;28;20034;-53
2020/12/29 09:53:10;;;;;;;1.58;0.70;;;4.10;99.90;;;;;;4995186;28;20468;-54
2020/12/29 09:55:39;;;;;;;0.98;0.80;;;4.20;99.90;;;;;;4994964;28;20081;-49
2020/12/29 09:58:06;;;;;;;1.02;0.70;;;4.20;99.90;;;;;;4994640;28;20082;-53
2020/12/29 10:00:32;;;;;;;1.17;0.70;;;4.20;99.90;;;;;;4993790;28;20027;-54
2020/12/29 10:02:58;;;;;;;1.58;0.90;;;4.20;99.90;;;;;;4994983;28;20112;-54
2020/12/29 10:05:25;;;;;;;0.90;0.75;;;4.20;99.90;;;;;;4994948;28;20105;-55
2020/12/29 10:07:51;;;;;;;2.80;1.33;;;4.20;99.90;;;;;;4994902;28;20030;-52
2020/12/29 10:10:17;;;;;;;3.35;1.52;;;4.20;99.90;;;;;;4994890;28;20100;-51
2020/12/29 10:12:43;;;;;;;2.40;0.95;;;4.20;99.90;;;;;;4994982;28;20034;-48
2020/12/29 10:15:09;;;;;;;1.33;0.80;;;4.20;99.90;;;;;;4994386;28;20049;-51
2020/12/29 10:17:36;;;;;;;1.30;0.80;;;4.30;99.90;;;;;;4994247;28;20050;-48
2020/12/29 10:20:06;;;;;;;1.92;1.00;;;4.30;99.90;;;;;;4994075;28;20134;-52
2020/12/29 10:22:32;;;;;;;1.48;1.00;;;4.30;99.90;;;;;;4994380;28;20038;-55
2020/12/29 10:24:58;;;;;;;1.58;0.73;;;4.30;99.90;;;;;;4994637;28;20034;-54
2020/12/29 10:27:24;;;;;;;1.33;0.75;;;4.30;99.90;;;;;;4994061;28;20022;-52
2020/12/29 10:29:50;;;;;;;2.25;0.90;;;4.40;99.90;;;;;;4994481;28;20032;-53
2020/12/29 10:32:20;;;;;;;1.40;0.73;;;4.40;99.90;;;;;;4994675;28;20034;-53
2020/12/29 10:34:49;;;;;;;1.40;0.80;;;4.50;99.90;;;;;;5009294;28;20027;-52
2020/12/29 10:37:16;;;;;;;1.17;0.70;;;4.50;99.90;;;;;;4993921;28;20031;-54
2020/12/29 10:39:43;;;;;;;0.65;0.60;;;4.50;99.90;;;;;;4994129;28;20031;-54
2020/12/29 10:42:09;;;;;;;0.98;0.70;;;4.60;99.90;;;;;;4994330;28;20031;-52
2020/12/29 10:44:35;;;;;;;1.45;0.70;;;4.60;99.90;;;;;;4993831;28;20034;-56
2020/12/29 10:47:01;;;;;;;1.42;0.75;;;4.50;99.90;;;;;;4994054;28;20026;-54
2020/12/29 10:49:27;;;;;;;1.15;0.70;;;4.60;99.90;;;;;;4994123;28;20058;-52
2020/12/29 10:51:53;;;;;;;0.95;0.70;;;4.60;99.90;;;;;;4994051;28;20049;-55
2020/12/29 10:54:18;;;;;;;1.02;0.60;;;4.60;99.90;;;;;;4994208;28;20034;-51
2020/12/29 10:56:44;;;;;;;2.13;0.90;;;4.70;99.90;;;;;;4993335;28;20061;-53
2020/12/29 10:59:11;;;;;;;0.98;0.63;;;5.20;99.90;;;;;;4992653;28;20058;-54
2020/12/29 11:01:37;;;;;;;2.88;1.02;;;5.30;99.90;;;;;;4993849;28;20050;-51
2020/12/29 11:04:03;;;;;;;1.73;0.77;;;5.10;99.90;;;;;;4993354;28;20038;-54
2020/12/29 11:06:29;;;;;;;3.63;1.05;;;4.90;99.90;;;;;;4993945;28;20064;-55
2020/12/29 11:08:55;;;;;;;1.80;0.82;;;4.80;99.90;;;;;;4993714;28;20061;-52
2020/12/29 11:11:21;;;;;;;0.90;0.57;;;4.70;99.90;;;;;;4993760;28;20384;-52
2020/12/29 11:13:48;;;;;;;1.85;1.00;;;4.70;99.90;;;;;;4993559;28;20062;-52
2020/12/29 11:16:21;;;;;;;2.75;1.02;;;4.80;99.90;;;;;;4993632;28;20034;-56
2020/12/29 11:18:50;;;;;;;1.92;0.80;;;4.70;99.90;;;;;;4993312;28;20049;-55
2020/12/29 11:21:20;;;;;;;1.67;1.02;;;4.70;99.90;;;;;;4993527;28;20057;-53
2020/12/29 11:23:50;;;;;;;1.88;1.15;;;4.70;99.90;;;;;;4993289;28;20387;-53
2020/12/29 11:26:20;;;;;;;1.55;0.65;;;4.70;99.90;;;;;;4993273;28;20534;-56
2020/12/29 11:28:46;;;;;;;1.67;0.80;;;4.70;99.90;;;;;;4993879;28;20034;-50
2020/12/29 11:31:18;;;;;;;1.40;0.80;;;4.80;99.90;;;;;;4993064;28;20065;-54
2020/12/29 11:33:45;;;;;;;3.30;1.35;;;4.90;99.90;;;;;;4992870;28;20035;-52
2020/12/29 11:36:18;;;;;;;3.38;0.88;;;4.80;99.90;;;;;;4992878;28;20062;-53
2020/12/29 11:38:44;;;;;;;1.60;0.80;;;4.90;99.90;;;;;;4993271;28;20056;-52
2020/12/29 11:41:11;;;;;;;1.75;0.80;;;4.90;99.90;;;;;;4993187;28;20038;-52
2020/12/29 11:43:37;;;;;;;0.85;0.60;;;5.00;99.90;;;;;;5008069;28;20042;-56
2020/12/29 11:46:05;;;;;;;2.83;0.82;;;5.00;99.90;;;;;;4992850;28;20041;-54
2020/12/29 11:48:32;;;;;;;1.25;0.70;;;5.20;99.90;;;;;;4992924;28;20033;-53
2020/12/29 11:50:58;;;;;;;1.67;0.85;;;5.60;99.90;;;;;;5007303;28;20023;-57
2020/12/29 11:53:24;;;;;;;1.60;0.80;;;6.80;99.90;;;;;;4993274;28;20030;-58
2020/12/29 11:55:50;;;;;;;2.35;0.75;;;7.70;99.90;;;;;;4992570;28;20034;-55
2020/12/29 11:58:16;;;;;;;1.38;0.73;;;7.90;99.90;;;;;;5007381;28;20034;-50
2020/12/29 12:00:41;;;;;;;1.77;0.68;;;8.60;99.90;;;;;;4989126;28;20058;-50
2020/12/29 12:03:08;;;;;;;1.27;0.60;;;8.30;99.90;;;;;;4980579;28;20027;-54
2020/12/29 12:05:34;;;;;;;4.85;1.10;;;8.10;99.90;;;;;;4991119;28;20029;-55
2020/12/29 12:08:00;;;;;;;8.48;2.95;;;7.30;99.90;;;;;;4990769;28;20058;-54
2020/12/29 12:10:26;;;;;;;3.20;0.80;;;7.00;99.90;;;;;;4991963;28;20113;-54
2020/12/29 12:12:52;;;;;;;6.18;0.95;;;7.00;99.90;;;;;;4992458;28;20084;-52
2020/12/29 12:15:18;;;;;;;1.25;0.80;;;7.20;99.90;;;;;;4992319;28;20034;-55
2020/12/29 12:17:44;;;;;;;2.28;1.13;;;8.40;99.90;;;;;;4992334;28;20081;-53
2020/12/29 12:20:10;;;;;;;2.17;0.70;;;9.00;99.90;;;;;;4992329;28;20105;-52
2020/12/29 12:22:36;;;;;;;2.00;1.10;;;9.70;99.90;;;;;;4992815;28;20081;-51
2020/12/29 12:25:03;;;;;;;1.52;0.80;;;9.40;99.90;;;;;;4992537;28;20081;-52
2020/12/29 12:27:29;;;;;;;2.97;1.52;;;9.40;99.90;;;;;;4991372;28;20058;-49
2020/12/29 12:29:55;;;;;;;2.40;0.73;;;9.10;99.90;;;;;;4992773;28;20027;-50
2020/12/29 12:32:21;;;;;;;2.38;1.02;;;8.60;99.90;;;;;;4992359;28;20035;-54
2020/12/29 12:34:47;;;;;;;1.58;1.20;;;7.90;99.90;;;;;;4992358;28;20034;-52
2020/12/29 12:37:13;;;;;;;1.77;0.90;;;7.60;99.90;;;;;;4992149;28;20034;-54
2020/12/29 12:39:40;;;;;;;2.55;0.95;;;7.20;99.90;;;;;;4992709;28;20061;-52
2020/12/29 12:42:09;;;;;;;3.88;0.88;;;6.90;99.90;;;;;;4992324;28;20121;-52
2020/12/29 12:44:37;;;;;;;3.10;1.00;;;6.50;99.90;;;;;;4992590;28;20089;-52
2020/12/29 12:47:07;;;;;;;1.10;0.70;;;6.30;99.90;;;;;;4992252;28;20041;-51
2020/12/29 12:49:32;;;;;;;3.75;1.25;;;6.20;99.90;;;;;;4992166;28;20042;-55
2020/12/29 12:51:59;;;;;;;1.92;0.93;;;6.00;99.90;;;;;;4992208;28;20084;-53
2020/12/29 12:54:26;;;;;;;4.13;1.10;;;6.10;99.90;;;;;;4992371;28;20038;-55
2020/12/29 12:56:55;;;;;;;3.13;1.05;;;6.40;99.90;;;;;;4992135;28;20120;-53
2020/12/29 12:59:22;;;;;;;5.20;0.93;;;6.50;99.90;;;;;;4991936;28;20030;-51
2020/12/29 13:01:52;;;;;;;2.78;1.00;;;6.70;99.90;;;;;;4993053;28;20026;-53
2020/12/29 13:04:20;;;;;;;2.73;1.17;;;7.50;99.90;;;;;;4995804;28;20033;-48